Aérodrome :
LOGIN :

S'inscrire | Disclaimer

   EN    FR    IT 

 










Légende :    VFR   VFR Marginal   IFR   IFR Intensif   IFR Très Intensif
Visi : 
Plafond : 
>= 8 km
>= 3000ft
5 à 8 km
1000 à 3000 ft
1500m à 5 km
500 à 1000 ft
800 à 1500m
200 à 500 ft
< 800m
< 200 ft
Symboles :   Orages  Brouillard  Fortes neiges  Fortes précipitations  Vent > 20 kt
SIGMETs :   Divers  Orages  Givrage  Turbulence  Onde Orograph.  Cendres Volcan.






- Altitude de l'aérodrome : 313 ft
- Code IATA : LEH


LFOH - Le Havre Octeville

DERNIER METAR :
  • 261730Z AUTO 32015KT 290V350 9999 BKN036/// BKN044/// BKN058/// ///CB 06/02 Q1011 BECMG BKN035

METARs EXPIRÉS :
  • 261700Z AUTO 31015KT 9999 FEW025/// SCT031/// BKN038/// ///TCU 07/02 Q1010 BECMG BKN035
  • 261630Z AUTO 30019G29KT 280V340 9999 SCT030 BKN036 BKN056 07/02 Q1010 BECMG 30013KT
  • 261600Z AUTO 29018KT 270V340 9999 FEW029 SCT034 BKN049 07/02 Q1010 TEMPO 30020G35KT 4000 SHRA BKN030CB
  • 261530Z AUTO 29023G38KT 260V330 9999 FEW024/// BKN035/// BKN045/// ///CB 05/02 Q1010 BECMG 30013KT BKN035
  • 261500Z AUTO 28020KT 250V310 9999 FEW035/// ///TCU 07/02 Q1010 TEMPO 4000 SHRA BECMG 30020G35KT BKN035

TAF AMD TAF LFOH
Valide du 26 à 15h jusqu'au 27 à 12h UTC


261542Z 2615/2712 30020G35KT 9999 BKN035
TEMPO 2615/2617 4000 SHRA BKN030CB
BECMG 2617/2619 30013KT
BECMG 2621/2623 24013KT
BECMG 2700/2703 16015G25KT 4000 RA OVC013
TEMPO 2705/2707 16020G35KT OVC005
BECMG 2707/2709 26025G40KT
BECMG 2710/2712 34025G40KT 9999 NSW BKN018
ATIS : +33 2 35 54 64 93



MET'MAP, la Météo Aéronautique d'un coup d'oeil ! - Copyright ORBIFLY Décembre 2007 - Disclaimer

ORBIFLY MET'MAP TEAM :

Programmation & Développement : Alexandra Zaïnal
Sur une idée originale de : Baudouin d'Aumeries
Assistance à la programmation : Marc-Olivier Méhu
Soutien technique & logistique : Manuel Goepfert

Contact : metmap@orbifly.com




SOURCES & CREDITS :

   NOAA